Terminal Aerodrome Forecast
Issued by NWS

Current Version | Previous Version | Text Only | Print | Product List | Glossary On
Versions: 1 2 3 4 5 6 7 8 9 10 11 12 13 14 15 16 17 18 19 20 21 22 23
000 FTUS41 KILN 281134 TAFLCK TAF KLCK 281134Z 2812/2912 05004KT P6SM FEW130 BKN200 FM281300 02003KT P6SM SCT120 BKN250 FM281700 02006KT P6SM VCTS SCT040CB BKN250 FM290000 03003KT P6SM SCT130 BKN250=

USA.gov is the U.S. government's official web portal to all federal, state and local government web resources and services.